Time;durP1;ratioP1;P1;durP2;ratioP2;P2;SDS_P1;SDS_P2;PMS_P1;PMS_P2;Temp;Humidity;BMP_temperature;BMP_pressure;BME280_temperature;BME280_humidity;BME280_pressure;Samples;Min_cycle;Max_cycle;Signal;HPM_P1;HPM_P2
2022/04/30 00:00:29;;;;;;;0.52;0.47;;;24.30;76.50;;;;;;5118988;23;20951;-63
2022/04/30 00:02:32;;;;;;;1.30;0.60;;;24.30;76.50;;;;;;5092609;23;20502;-62
2022/04/30 00:04:45;;;;;;;1.63;0.93;;;24.40;75.70;;;;;;5114099;22;20035;-62
2022/04/30 00:06:47;;;;;;;1.38;0.95;;;24.30;74.70;;;;;;5117320;22;20023;-61
2022/04/30 00:08:49;;;;;;;4.27;1.07;;;24.30;74.80;;;;;;5116339;22;20036;-61
2022/04/30 00:10:53;;;;;;;1.63;1.05;;;24.30;75.00;;;;;;5121277;22;20262;-61
2022/04/30 00:12:56;;;;;;;1.40;0.90;;;24.30;75.10;;;;;;5119453;23;20035;-61
2022/04/30 00:14:58;;;;;;;0.98;0.77;;;24.20;75.30;;;;;;5115633;22;20560;-60
2022/04/30 00:17:00;;;;;;;2.58;0.85;;;24.30;75.30;;;;;;5116834;22;20027;-61
2022/04/30 00:19:02;;;;;;;1.43;0.80;;;24.30;75.40;;;;;;5123634;22;20564;-61
2022/04/30 00:21:05;;;;;;;0.50;0.50;;;24.30;75.50;;;;;;5116006;22;20275;-61
2022/04/30 00:23:19;;;;;;;1.08;0.70;;;24.30;75.60;;;;;;5116549;22;20085;-61
2022/04/30 00:25:22;;;;;;;0.80;0.68;;;24.30;75.70;;;;;;5116020;22;20032;-60
2022/04/30 00:27:25;;;;;;;1.58;0.80;;;24.30;75.60;;;;;;5119293;22;20063;-59
2022/04/30 00:29:29;;;;;;;2.28;0.65;;;24.30;75.60;;;;;;5121656;22;20028;-59
2022/04/30 00:31:31;;;;;;;7.65;1.05;;;24.30;75.70;;;;;;5116222;22;20953;-58
2022/04/30 00:33:33;;;;;;;1.50;0.70;;;24.30;75.80;;;;;;5115275;22;20035;-59
2022/04/30 00:35:37;;;;;;;3.13;0.93;;;24.30;75.80;;;;;;5121931;22;20449;-60
2022/04/30 00:37:38;;;;;;;;;;;24.30;75.90;;;;;;5116167;22;20134;-64
2022/04/30 00:39:40;;;;;;;1.17;0.75;;;24.30;76.10;;;;;;5119023;22;19919;-64
2022/04/30 00:41:45;;;;;;;2.88;0.82;;;24.30;76.00;;;;;;5122456;22;20032;-64
2022/04/30 00:43:50;;;;;;;4.18;0.98;;;24.30;76.10;;;;;;5119911;22;20122;-63
2022/04/30 00:45:52;;;;;;;5.85;1.30;;;24.30;75.20;;;;;;5112450;23;20078;-62
2022/04/30 00:47:55;;;;;;;8.57;2.03;;;24.40;74.90;;;;;;5113947;22;20054;-60
2022/04/30 00:49:57;;;;;;;18.03;2.20;;;24.30;74.90;;;;;;5122449;22;20024;-60
2022/04/30 00:52:03;;;;;;;15.10;2.87;;;24.30;75.20;;;;;;5120301;22;20024;-61
2022/04/30 00:54:07;;;;;;;11.45;1.90;;;24.30;75.40;;;;;;5118498;22;20027;-61
2022/04/30 00:56:14;;;;;;;13.55;1.90;;;24.30;75.40;;;;;;5111879;23;20035;-60
2022/04/30 00:58:20;;;;;;;8.57;1.55;;;24.40;75.50;;;;;;5122636;22;20104;-60
2022/04/30 01:00:25;;;;;;;6.00;1.50;;;24.30;75.50;;;;;;5120071;22;20059;-61
2022/04/30 01:02:35;;;;;;;1.65;0.88;;;24.30;75.50;;;;;;5118011;22;20035;-64
2022/04/30 01:04:38;;;;;;;2.80;0.85;;;24.40;75.60;;;;;;5118848;22;20947;-61
2022/04/30 01:07:09;;;;;;;1.93;0.70;;;24.40;75.70;;;;;;5116240;22;20040;-61
2022/04/30 01:09:11;;;;;;;3.58;1.00;;;24.40;75.50;;;;;;5118811;23;20377;-54
2022/04/30 01:11:15;;;;;;;8.35;1.40;;;24.40;75.50;;;;;;5119991;22;21081;-52
2022/04/30 01:13:18;;;;;;;4.90;1.05;;;24.40;75.60;;;;;;5116421;22;20032;-52
2022/04/30 01:15:21;;;;;;;2.92;1.13;;;24.40;75.40;;;;;;5118687;22;20093;-53
2022/04/30 01:17:23;;;;;;;4.20;1.10;;;24.40;75.40;;;;;;5122889;22;20073;-56
2022/04/30 01:19:29;;;;;;;3.10;0.97;;;24.30;75.20;;;;;;5116565;22;20039;-55
2022/04/30 01:21:32;;;;;;;2.08;0.60;;;24.30;75.10;;;;;;5116598;22;20512;-54
2022/04/30 01:23:34;;;;;;;;;;;24.30;75.00;;;;;;5116623;22;20067;-54
2022/04/30 01:25:42;;;;;;;3.13;0.80;;;24.30;75.00;;;;;;5118124;22;19920;-51
2022/04/30 01:27:44;;;;;;;1.65;0.70;;;24.20;74.90;;;;;;5120027;22;20028;-55
2022/04/30 01:29:46;;;;;;;2.75;0.82;;;24.20;74.80;;;;;;5116343;22;20107;-49
2022/04/30 01:39:01;;;;;;;1.77;0.80;;;24.10;74.80;;;;;;5120939;23;20028;-49
2022/04/30 01:41:03;;;;;;;1.83;0.65;;;24.10;74.80;;;;;;5121114;22;20028;-53
2022/04/30 01:43:07;;;;;;;1.00;0.65;;;24.10;74.80;;;;;;5115321;22;20020;-56
2022/04/30 01:45:10;;;;;;;0.98;0.52;;;24.10;74.80;;;;;;5116969;22;20103;-56
2022/04/30 01:47:12;;;;;;;;;;;24.10;74.80;;;;;;5120656;22;20580;-55
2022/04/30 01:49:16;;;;;;;0.80;0.70;;;24.10;74.80;;;;;;5119335;23;21037;-52
2022/04/30 01:51:18;;;;;;;2.67;0.80;;;24.00;74.80;;;;;;5121203;22;20024;-53
2022/04/30 01:53:20;;;;;;;1.98;0.70;;;24.00;74.70;;;;;;5121049;22;20328;-53
2022/04/30 01:55:22;;;;;;;0.50;0.50;;;24.00;74.80;;;;;;5125514;22;20028;-54
2022/04/30 01:57:28;;;;;;;1.08;0.50;;;24.00;74.70;;;;;;5118846;22;20028;-49
2022/04/30 01:59:31;;;;;;;0.85;0.60;;;24.00;74.70;;;;;;5116249;22;20732;-53
2022/04/30 02:01:34;;;;;;;0.85;0.70;;;24.00;74.70;;;;;;5120246;22;20449;-50
2022/04/30 02:03:37;;;;;;;0.90;0.50;;;24.00;74.70;;;;;;5126816;22;20454;-53
2022/04/30 02:05:41;;;;;;;1.80;0.65;;;24.00;74.70;;;;;;5119631;22;20502;-55
2022/04/30 02:08:19;;;;;;;0.85;0.65;;;23.90;74.70;;;;;;5119409;22;20091;-50
2022/04/30 02:10:26;;;;;;;0.88;0.60;;;23.90;74.70;;;;;;5116475;23;20064;-52
2022/04/30 02:12:32;;;;;;;2.25;0.90;;;23.90;74.70;;;;;;5125913;22;20024;-49
2022/04/30 02:14:36;;;;;;;0.65;0.55;;;23.90;74.70;;;;;;5124543;22;20747;-50
2022/04/30 02:16:40;;;;;;;1.08;0.60;;;23.90;75.40;;;;;;5122430;22;20066;-52
2022/04/30 02:18:43;;;;;;;1.92;0.73;;;23.80;74.70;;;;;;5121630;22;20047;-54
2022/04/30 02:20:49;;;;;;;0.93;0.68;;;23.80;74.70;;;;;;5122822;23;20047;-55
2022/04/30 02:22:58;;;;;;;2.13;0.77;;;23.80;74.80;;;;;;5123351;22;20024;-52
2022/04/30 02:25:01;;;;;;;1.08;0.82;;;23.80;74.70;;;;;;5124437;22;20054;-49
2022/04/30 02:27:03;;;;;;;2.15;0.90;;;23.80;74.70;;;;;;5125899;22;20059;-52
2022/04/30 02:29:07;;;;;;;1.23;0.80;;;23.80;74.80;;;;;;5124929;22;20028;-56
2022/04/30 02:31:29;;;;;;;1.40;0.70;;;23.80;74.80;;;;;;5125696;22;20020;-49
2022/04/30 02:33:31;;;;;;;1.23;0.70;;;23.80;74.80;;;;;;5118365;22;20024;-54
2022/04/30 02:35:35;;;;;;;1.48;0.57;;;23.80;74.80;;;;;;5121484;22;20058;-51
2022/04/30 02:37:37;;;;;;;0.90;0.70;;;23.70;74.80;;;;;;5118378;22;21092;-54
2022/04/30 02:39:39;;;;;;;1.10;0.93;;;23.70;74.60;;;;;;5118955;22;20473;-51
2022/04/30 02:41:42;;;;;;;1.08;0.70;;;23.70;74.80;;;;;;5120139;22;20028;-51
2022/04/30 02:43:46;;;;;;;1.20;1.00;;;23.70;74.80;;;;;;5119018;22;20868;-54
2022/04/30 02:45:49;;;;;;;1.25;0.63;;;23.70;74.80;;;;;;5116320;22;20429;-62
2022/04/30 02:47:56;;;;;;;1.30;0.98;;;23.70;74.90;;;;;;5113325;23;20145;-52
2022/04/30 02:49:58;;;;;;;1.00;0.85;;;23.70;74.90;;;;;;5120604;22;20024;-56
2022/04/30 02:52:01;;;;;;;1.00;0.63;;;23.60;74.90;;;;;;5116874;23;20061;-52
2022/04/30 02:54:03;;;;;;;1.15;0.90;;;23.60;74.80;;;;;;5113323;23;20107;-55
2022/04/30 02:56:06;;;;;;;2.08;1.00;;;23.60;74.90;;;;;;5119876;22;20024;-53
2022/04/30 03:00:30;;;;;;;1.70;0.80;;;23.60;74.90;;;;;;5116715;23;20103;-56
2022/04/30 03:02:32;;;;;;;0.70;0.50;;;23.60;74.90;;;;;;5123830;23;20050;-52
2022/04/30 03:04:35;;;;;;;0.93;0.57;;;23.60;75.00;;;;;;5122809;22;20024;-55
2022/04/30 03:06:37;;;;;;;1.38;1.00;;;23.60;75.00;;;;;;5119529;22;20031;-52
2022/04/30 03:08:41;;;;;;;1.85;0.98;;;23.60;75.00;;;;;;5124676;22;20858;-57
2022/04/30 03:10:45;;;;;;;0.90;0.80;;;23.60;75.00;;;;;;5130502;22;20031;-49
2022/04/30 03:12:49;;;;;;;1.52;0.73;;;23.50;74.90;;;;;;5122184;22;20424;-50
2022/04/30 03:14:51;;;;;;;1.30;0.85;;;23.50;75.00;;;;;;5121326;22;20067;-51
2022/04/30 03:21:47;;;;;;;1.42;0.80;;;23.50;75.00;;;;;;5133247;23;20027;-53
2022/04/30 03:23:51;;;;;;;1.08;0.80;;;23.50;75.00;;;;;;5133655;22;20056;-52
2022/04/30 03:25:53;;;;;;;1.42;0.85;;;23.50;75.00;;;;;;5128506;23;20040;-49
2022/04/30 03:27:56;;;;;;;0.70;0.70;;;23.50;75.00;;;;;;5132685;22;20524;-48
2022/04/30 03:29:58;;;;;;;0.93;0.67;;;23.50;75.00;;;;;;5130100;22;20048;-49
2022/04/30 03:32:01;;;;;;;1.02;0.57;;;23.50;75.10;;;;;;5128043;22;20320;-54
2022/04/30 03:34:03;;;;;;;1.65;0.90;;;23.50;75.20;;;;;;5129261;22;20493;-54
2022/04/30 03:36:06;;;;;;;1.95;0.70;;;23.50;75.10;;;;;;5128984;22;20542;-50
2022/04/30 03:38:09;;;;;;;4.18;0.85;;;23.50;75.10;;;;;;5127583;22;20383;-54
2022/04/30 03:40:13;;;;;;;1.48;0.85;;;23.50;75.10;;;;;;5125158;22;20126;-54
2022/04/30 03:42:16;;;;;;;1.25;0.77;;;23.40;75.00;;;;;;5126582;22;20020;-55
2022/04/30 03:44:18;;;;;;;0.57;0.57;;;23.50;75.10;;;;;;5127917;22;20979;-52
2022/04/30 03:46:20;;;;;;;1.50;0.93;;;23.40;75.10;;;;;;5125131;22;20024;-49
2022/04/30 03:48:23;;;;;;;1.08;0.68;;;23.40;75.10;;;;;;5127522;22;20062;-51
2022/04/30 03:50:25;;;;;;;0.80;0.70;;;23.40;75.10;;;;;;5127195;22;20083;-50
2022/04/30 03:52:30;;;;;;;1.20;0.95;;;23.40;75.10;;;;;;5122412;22;20028;-54
2022/04/30 03:54:32;;;;;;;1.30;0.85;;;23.40;75.10;;;;;;5122937;22;20035;-51
2022/04/30 03:56:34;;;;;;;0.82;0.65;;;23.40;75.10;;;;;;5125058;22;20024;-50
2022/04/30 03:58:37;;;;;;;0.93;0.70;;;23.40;75.10;;;;;;5129243;22;20030;-54
2022/04/30 04:00:39;;;;;;;1.70;1.05;;;23.40;75.10;;;;;;5127205;22;20406;-53
2022/04/30 04:02:43;;;;;;;1.80;0.83;;;23.40;75.10;;;;;;5127747;22;20086;-49
2022/04/30 04:04:45;;;;;;;0.73;0.70;;;23.40;75.80;;;;;;5127220;22;20481;-50
2022/04/30 04:06:47;;;;;;;1.25;0.80;;;23.30;75.10;;;;;;5125497;22;20029;-51
2022/04/30 04:08:52;;;;;;;0.88;0.60;;;23.40;75.20;;;;;;5121459;22;20178;-53
2022/04/30 04:10:54;;;;;;;0.80;0.80;;;23.40;75.20;;;;;;5116597;22;20028;-51
2022/04/30 04:17:37;;;;;;;1.23;0.93;;;23.30;75.10;;;;;;5111850;23;21053;-51
2022/04/30 04:17:39;;;;;;;1.23;0.77;;;23.30;75.20;;;;;;5106666;23;20024;-53
2022/04/30 04:19:41;;;;;;;1.42;0.85;;;23.30;75.20;;;;;;5114626;22;20377;-55
2022/04/30 04:21:43;;;;;;;0.63;0.60;;;23.30;75.20;;;;;;5112754;22;20256;-52
2022/04/30 04:26:06;;;;;;;1.48;0.77;;;23.30;75.30;;;;;;5108021;23;20047;-54
2022/04/30 04:28:08;;;;;;;0.88;0.82;;;23.30;75.20;;;;;;5110916;22;20186;-52
2022/04/30 04:30:11;;;;;;;1.40;0.63;;;23.30;75.60;;;;;;5113932;22;20028;-53
2022/04/30 04:32:14;;;;;;;1.35;0.80;;;23.30;75.20;;;;;;5115457;22;20020;-58
2022/04/30 04:34:16;;;;;;;1.30;0.80;;;23.30;75.20;;;;;;5111106;22;20636;-54
2022/04/30 04:36:19;;;;;;;1.13;0.82;;;23.30;75.20;;;;;;5109651;23;20119;-50
2022/04/30 04:38:21;;;;;;;1.25;0.93;;;23.30;75.20;;;;;;5114703;22;20036;-55
2022/04/30 04:40:23;;;;;;;1.38;0.88;;;23.30;75.20;;;;;;5110142;22;20027;-55
2022/04/30 04:42:25;;;;;;;1.10;0.70;;;23.30;75.20;;;;;;5110466;22;20119;-56
2022/04/30 04:44:27;;;;;;;0.73;0.60;;;23.30;75.20;;;;;;5115287;22;20135;-53
2022/04/30 04:46:30;;;;;;;0.45;0.38;;;23.30;75.20;;;;;;5111522;23;20822;-56
2022/04/30 04:48:33;;;;;;;0.82;0.60;;;23.30;75.10;;;;;;5109060;22;20024;-54
2022/04/30 04:50:36;;;;;;;0.93;0.82;;;23.30;75.20;;;;;;5105347;23;20202;-56
2022/04/30 04:52:38;;;;;;;1.20;0.77;;;23.30;75.20;;;;;;5118099;22;20378;-55
2022/04/30 04:54:40;;;;;;;1.52;0.75;;;23.30;75.20;;;;;;5110181;22;20281;-53
2022/04/30 04:56:42;;;;;;;1.40;0.77;;;23.30;75.10;;;;;;5109712;22;20859;-52
2022/04/30 04:58:44;;;;;;;1.02;0.70;;;23.30;75.10;;;;;;5117260;22;20028;-53
2022/04/30 05:00:46;;;;;;;0.80;0.75;;;23.30;75.10;;;;;;5109435;22;20204;-50
2022/04/30 05:02:48;;;;;;;0.90;0.70;;;23.40;75.10;;;;;;5104030;22;20032;-55
2022/04/30 05:04:50;;;;;;;0.93;0.77;;;23.40;75.00;;;;;;5113710;22;20050;-52
2022/04/30 05:06:53;;;;;;;1.02;0.60;;;23.40;75.00;;;;;;5115276;22;20075;-51
2022/04/30 05:08:55;;;;;;;1.33;0.85;;;23.40;74.90;;;;;;5106914;23;20034;-48
2022/04/30 05:10:57;;;;;;;0.70;0.60;;;23.40;74.90;;;;;;5083958;23;20071;-55
2022/04/30 05:12:59;;;;;;;1.90;0.63;;;23.40;74.90;;;;;;5114994;23;20028;-51
2022/04/30 05:15:01;;;;;;;0.75;0.65;;;23.40;74.90;;;;;;5110882;22;20095;-54
2022/04/30 05:17:05;;;;;;;1.42;0.93;;;23.40;74.80;;;;;;5110657;22;20039;-50
2022/04/30 05:19:07;;;;;;;1.40;0.70;;;23.40;74.70;;;;;;5119213;22;20056;-56
2022/04/30 05:21:09;;;;;;;1.13;0.80;;;23.40;74.70;;;;;;5107525;22;20314;-55
2022/04/30 05:23:11;;;;;;;0.95;0.60;;;23.50;75.50;;;;;;5110041;22;20050;-52
2022/04/30 05:25:14;;;;;;;0.60;0.60;;;23.40;74.70;;;;;;5113749;22;20035;-52
2022/04/30 05:27:16;;;;;;;0.60;0.60;;;23.50;74.80;;;;;;5115293;22;20024;-53
2022/04/30 05:29:19;;;;;;;0.88;0.80;;;23.50;74.70;;;;;;5104372;23;20067;-51
2022/04/30 05:31:21;;;;;;;0.47;0.45;;;23.60;74.50;;;;;;5108802;22;20035;-56
2022/04/30 05:33:23;;;;;;;1.00;0.70;;;23.60;74.40;;;;;;5113770;22;20028;-54
2022/04/30 05:35:26;;;;;;;0.75;0.75;;;23.60;74.30;;;;;;5108130;22;21025;-51
2022/04/30 05:37:28;;;;;;;1.02;0.75;;;23.60;74.40;;;;;;5106145;22;20028;-52
2022/04/30 05:39:30;;;;;;;0.65;0.60;;;23.60;74.40;;;;;;5114893;22;20749;-54
2022/04/30 05:41:32;;;;;;;1.30;0.70;;;23.60;74.30;;;;;;5114978;22;20039;-50
2022/04/30 05:43:36;;;;;;;0.73;0.50;;;23.70;74.20;;;;;;5109181;22;20620;-52
2022/04/30 05:45:37;;;;;;;;;;;23.70;74.00;;;;;;5110865;22;20028;-51
2022/04/30 05:47:39;;;;;;;2.25;0.85;;;23.70;74.00;;;;;;5115337;22;19926;-52
2022/04/30 05:49:42;;;;;;;1.35;0.70;;;23.80;74.00;;;;;;5106763;22;20118;-56
2022/04/30 05:51:44;;;;;;;0.85;0.70;;;23.80;74.00;;;;;;5109251;22;20024;-51
2022/04/30 05:53:46;;;;;;;1.50;1.08;;;23.70;73.90;;;;;;5112942;23;20265;-50
2022/04/30 05:55:49;;;;;;;1.20;0.55;;;23.80;74.00;;;;;;5106323;23;20035;-53
2022/04/30 05:57:51;;;;;;;0.85;0.77;;;23.80;74.00;;;;;;5109615;22;20032;-51
2022/04/30 05:59:53;;;;;;;1.63;0.95;;;23.80;73.90;;;;;;5112869;22;20035;-56
2022/04/30 06:01:56;;;;;;;0.88;0.77;;;23.80;73.90;;;;;;5114933;22;21193;-51
2022/04/30 06:03:58;;;;;;;1.13;0.87;;;23.80;73.80;;;;;;5105370;23;20089;-53
2022/04/30 06:06:00;;;;;;;1.55;0.90;;;23.80;73.80;;;;;;5111179;22;20264;-55
2022/04/30 06:08:03;;;;;;;0.85;0.60;;;23.80;73.70;;;;;;5113920;22;20533;-53
2022/04/30 06:10:05;;;;;;;1.50;0.93;;;23.80;73.80;;;;;;5105923;22;20031;-52
2022/04/30 06:12:08;;;;;;;0.80;0.80;;;23.80;73.80;;;;;;5107863;22;20028;-56
2022/04/30 06:14:10;;;;;;;1.40;0.90;;;23.80;73.90;;;;;;5115475;22;20175;-52
2022/04/30 06:16:12;;;;;;;2.42;1.30;;;23.80;73.90;;;;;;5114774;22;20933;-51
2022/04/30 06:18:20;;;;;;;0.70;0.60;;;23.80;74.00;;;;;;5108056;22;20562;-48
2022/04/30 06:20:22;;;;;;;1.60;0.88;;;23.80;74.00;;;;;;5106872;22;20495;-59
2022/04/30 06:22:24;;;;;;;1.60;1.13;;;23.80;74.00;;;;;;5116598;22;20488;-57
2022/04/30 06:24:26;;;;;;;3.20;0.80;;;23.80;74.10;;;;;;5103865;23;20533;-52
2022/04/30 06:26:28;;;;;;;1.20;0.70;;;23.80;74.00;;;;;;5107369;22;20569;-56
2022/04/30 06:28:30;;;;;;;0.82;0.70;;;23.80;74.00;;;;;;5114804;22;20131;-54
2022/04/30 06:30:33;;;;;;;1.17;0.70;;;23.80;74.00;;;;;;5112401;22;20104;-56
2022/04/30 06:32:36;;;;;;;1.50;0.80;;;23.80;74.00;;;;;;5109611;23;20035;-47
2022/04/30 06:34:39;;;;;;;0.88;0.80;;;23.80;73.90;;;;;;5110123;22;20482;-50
2022/04/30 06:36:41;;;;;;;1.85;0.85;;;23.80;73.80;;;;;;5117247;22;20035;-57
2022/04/30 06:38:43;;;;;;;1.10;0.80;;;23.90;73.70;;;;;;5112530;22;20105;-51
2022/04/30 06:40:46;;;;;;;1.63;0.90;;;23.90;73.70;;;;;;5112240;22;20544;-53
2022/04/30 06:42:48;;;;;;;;;;;23.90;73.60;;;;;;5119442;22;20039;-55
2022/04/30 06:44:51;;;;;;;2.20;0.90;;;23.90;73.60;;;;;;5115876;22;20144;-52
2022/04/30 06:46:53;;;;;;;0.90;0.60;;;23.90;73.50;;;;;;5113223;22;20178;-54
2022/04/30 06:48:55;;;;;;;1.08;0.73;;;23.90;73.40;;;;;;5117545;22;20453;-56
2022/04/30 06:50:57;;;;;;;2.92;0.80;;;23.90;73.40;;;;;;5121033;22;20071;-58
2022/04/30 06:57:43;;;;;;;1.27;0.82;;;23.80;73.50;;;;;;5119195;23;20500;-57
2022/04/30 06:59:45;;;;;;;2.42;1.00;;;23.80;73.50;;;;;;5118062;22;20027;-55
2022/04/30 07:02:00;;;;;;;1.10;0.73;;;23.80;73.60;;;;;;5112470;22;20024;-51
2022/04/30 07:04:02;;;;;;;1.08;0.60;;;23.80;73.50;;;;;;5113179;23;20127;-51
2022/04/30 07:06:04;;;;;;;0.93;0.70;;;23.80;73.70;;;;;;5115541;22;20035;-55
2022/04/30 07:08:07;;;;;;;0.60;0.60;;;23.80;73.70;;;;;;5123080;22;20028;-51
2022/04/30 07:10:09;;;;;;;3.28;0.80;;;23.70;73.70;;;;;;5120977;22;21441;-56
2022/04/30 07:12:14;;;;;;;1.30;0.80;;;23.70;73.70;;;;;;5116337;22;20035;-55
2022/04/30 07:14:16;;;;;;;1.60;0.70;;;23.70;73.80;;;;;;5112170;22;20036;-55
2022/04/30 07:16:18;;;;;;;1.05;0.77;;;23.70;73.80;;;;;;5119229;22;20039;-52
2022/04/30 07:18:20;;;;;;;0.80;0.60;;;23.70;73.80;;;;;;5114217;23;20107;-50
2022/04/30 07:20:22;;;;;;;1.17;0.82;;;23.60;73.80;;;;;;5112210;23;20028;-54
2022/04/30 07:22:24;;;;;;;1.00;0.70;;;23.60;73.80;;;;;;5123693;22;20713;-55
2022/04/30 07:24:27;;;;;;;1.05;0.95;;;23.60;73.80;;;;;;5121223;22;20353;-55
2022/04/30 07:26:29;;;;;;;0.77;0.65;;;23.60;73.90;;;;;;5118893;23;20028;-56
2022/04/30 07:28:35;;;;;;;1.15;0.90;;;23.60;73.90;;;;;;5124955;23;20044;-55
2022/04/30 07:30:37;;;;;;;1.67;0.80;;;23.60;73.90;;;;;;5131352;22;20496;-55
2022/04/30 07:32:42;;;;;;;0.73;0.65;;;23.50;73.90;;;;;;5121058;22;20732;-54
2022/04/30 07:34:44;;;;;;;1.98;1.10;;;23.50;73.90;;;;;;5119323;22;20119;-56
2022/04/30 07:36:46;;;;;;;1.50;0.70;;;23.50;74.00;;;;;;5123578;22;20035;-54
2022/04/30 07:38:48;;;;;;;1.23;0.63;;;23.50;74.10;;;;;;5122121;23;21015;-56
2022/04/30 07:40:51;;;;;;;1.45;0.77;;;23.50;74.10;;;;;;5130473;22;20044;-54
2022/04/30 07:43:03;;;;;;;1.70;0.90;;;23.50;74.10;;;;;;5138930;22;20095;-54
2022/04/30 07:45:06;;;;;;;1.38;0.70;;;23.40;74.10;;;;;;5132776;22;20028;-57
2022/04/30 07:47:08;;;;;;;0.90;0.73;;;23.40;74.20;;;;;;5134162;22;20047;-52
2022/04/30 07:49:11;;;;;;;2.00;1.23;;;23.40;74.20;;;;;;5127517;22;20035;-55
2022/04/30 07:51:23;;;;;;;1.75;1.15;;;23.40;74.30;;;;;;5125045;22;20109;-55
2022/04/30 07:53:26;;;;;;;2.10;1.15;;;23.30;74.20;;;;;;5125641;22;20035;-55
2022/04/30 07:55:28;;;;;;;1.10;0.80;;;23.30;74.30;;;;;;5132073;22;20110;-53
2022/04/30 07:57:32;;;;;;;1.20;0.80;;;23.30;74.30;;;;;;5101894;23;20024;-53
2022/04/30 07:59:34;;;;;;;1.15;0.80;;;23.30;74.30;;;;;;5124367;22;20689;-55
2022/04/30 08:01:36;;;;;;;1.00;0.75;;;23.30;74.30;;;;;;5119337;22;20032;-56
2022/04/30 08:03:40;;;;;;;0.68;0.55;;;23.30;74.30;;;;;;5124029;22;20114;-56
2022/04/30 08:05:42;;;;;;;2.53;1.05;;;23.30;74.30;;;;;;5119360;22;20918;-55
2022/04/30 08:07:44;;;;;;;1.30;0.90;;;23.20;74.30;;;;;;5114309;22;20036;-53
2022/04/30 08:09:46;;;;;;;1.85;1.05;;;23.20;74.30;;;;;;5121875;22;20097;-52
2022/04/30 08:11:49;;;;;;;1.45;1.00;;;23.20;74.30;;;;;;5119138;22;20958;-53
2022/04/30 08:13:51;;;;;;;1.73;1.02;;;23.20;74.30;;;;;;5116411;22;20032;-54
2022/04/30 08:15:53;;;;;;;1.50;1.00;;;23.20;74.30;;;;;;5118002;22;20028;-54
2022/04/30 08:17:56;;;;;;;1.43;1.00;;;23.20;74.30;;;;;;5117448;23;20027;-53
2022/04/30 08:19:58;;;;;;;1.38;1.00;;;23.20;74.30;;;;;;5110794;23;20916;-54
2022/04/30 08:22:00;;;;;;;1.85;1.20;;;23.20;74.40;;;;;;5113304;22;20028;-54
2022/04/30 08:24:02;;;;;;;1.65;1.30;;;23.10;74.30;;;;;;5121750;22;20027;-55
2022/04/30 08:26:05;;;;;;;1.30;1.10;;;23.10;74.30;;;;;;5114984;22;20096;-56
2022/04/30 08:28:07;;;;;;;1.60;1.20;;;23.10;74.40;;;;;;5114199;22;20055;-51
2022/04/30 08:30:10;;;;;;;1.92;1.08;;;23.10;74.40;;;;;;5117999;22;20032;-54
2022/04/30 08:32:15;;;;;;;1.65;1.17;;;23.10;74.40;;;;;;5119165;22;20024;-55
2022/04/30 08:34:17;;;;;;;1.48;1.20;;;23.10;74.50;;;;;;5114295;22;20780;-55
2022/04/30 08:36:19;;;;;;;1.60;0.90;;;23.00;74.40;;;;;;5115125;22;20103;-52
2022/04/30 08:38:21;;;;;;;1.25;1.10;;;23.00;74.40;;;;;;5120077;22;20028;-53
2022/04/30 08:40:24;;;;;;;2.22;1.10;;;23.00;74.40;;;;;;5114159;22;20034;-51
2022/04/30 08:42:26;;;;;;;1.92;1.50;;;23.00;74.50;;;;;;5114121;22;20040;-52
2022/04/30 08:44:29;;;;;;;1.80;1.25;;;23.00;74.40;;;;;;5120152;22;20717;-56
2022/04/30 08:46:31;;;;;;;1.60;1.40;;;22.90;74.50;;;;;;5116347;22;21061;-58
2022/04/30 08:48:33;;;;;;;1.50;1.23;;;23.00;74.50;;;;;;5115967;22;20039;-54
2022/04/30 08:50:36;;;;;;;1.77;1.33;;;23.00;74.60;;;;;;5116429;22;20340;-54
2022/04/30 08:52:39;;;;;;;1.90;1.30;;;22.90;74.50;;;;;;5121877;22;20023;-55
2022/04/30 08:54:41;;;;;;;2.03;1.33;;;22.90;74.50;;;;;;5115705;22;20127;-52
2022/04/30 08:56:55;;;;;;;2.30;1.58;;;22.90;74.60;;;;;;5115968;22;20027;-52
2022/04/30 08:59:08;;;;;;;1.65;1.35;;;22.90;74.60;;;;;;5114474;22;20716;-52
2022/04/30 09:01:10;;;;;;;2.53;1.52;;;22.90;74.60;;;;;;5111741;22;20055;-51
2022/04/30 09:03:21;;;;;;;2.33;1.55;;;22.90;74.60;;;;;;5115085;22;20684;-57
2022/04/30 09:05:30;;;;;;;1.75;1.40;;;22.90;74.60;;;;;;5118990;22;20047;-55
2022/04/30 09:07:33;;;;;;;2.00;1.55;;;22.90;74.60;;;;;;5119777;22;20571;-54
2022/04/30 09:09:35;;;;;;;1.75;1.48;;;22.80;74.60;;;;;;5110380;23;20351;-56
2022/04/30 09:11:40;;;;;;;2.58;1.58;;;22.80;74.60;;;;;;5114940;22;20490;-54
2022/04/30 09:13:44;;;;;;;2.38;1.58;;;22.80;74.70;;;;;;5118409;22;20047;-57
2022/04/30 09:15:48;;;;;;;1.85;1.40;;;22.80;74.70;;;;;;5121039;22;20039;-52
2022/04/30 09:17:57;;;;;;;2.38;1.50;;;22.70;74.60;;;;;;5113159;23;20043;-52
2022/04/30 09:20:01;;;;;;;3.05;1.95;;;22.80;74.70;;;;;;5115144;23;20177;-52
2022/04/30 09:22:03;;;;;;;2.13;1.40;;;22.70;74.20;;;;;;5111998;23;20028;-53
2022/04/30 09:24:06;;;;;;;2.38;1.70;;;22.70;74.60;;;;;;5120998;22;20028;-55
2022/04/30 09:26:08;;;;;;;;;;;22.70;74.60;;;;;;5115679;22;20035;-55
2022/04/30 09:28:10;;;;;;;3.20;1.85;;;22.70;74.60;;;;;;5112389;22;20388;-52
2022/04/30 09:30:32;;;;;;;2.88;1.83;;;22.70;74.70;;;;;;5111517;23;20640;-54
2022/04/30 09:32:34;;;;;;;2.70;1.83;;;22.70;74.60;;;;;;5111840;22;20032;-52
2022/04/30 09:39:24;;;;;;;2.47;1.58;;;22.60;74.60;;;;;;5114522;23;20576;-49
2022/04/30 09:41:28;;;;;;;1.77;1.50;;;22.60;74.60;;;;;;5112237;22;20031;-50
2022/04/30 09:43:34;;;;;;;4.82;1.60;;;22.60;74.60;;;;;;5111517;22;20584;-53
2022/04/30 09:45:37;;;;;;;2.83;2.08;;;22.60;74.60;;;;;;5112425;23;20032;-57
2022/04/30 09:47:40;;;;;;;2.90;1.70;;;22.60;74.70;;;;;;5116119;23;20106;-53
2022/04/30 09:54:26;;;;;;;2.63;1.70;;;22.60;74.50;;;;;;5116021;23;20039;-52
2022/04/30 09:56:38;;;;;;;2.10;1.65;;;22.60;75.20;;;;;;5117249;22;20806;-50
2022/04/30 09:58:42;;;;;;;2.75;1.83;;;22.50;74.50;;;;;;5118295;22;20032;-48
2022/04/30 10:00:45;;;;;;;2.17;1.48;;;22.50;74.50;;;;;;5108089;23;20050;-51
2022/04/30 10:02:48;;;;;;;2.03;1.60;;;22.50;74.40;;;;;;5111812;22;20579;-50
2022/04/30 10:04:52;;;;;;;2.20;1.48;;;22.50;74.40;;;;;;5116020;22;20066;-56
2022/04/30 10:06:54;;;;;;;1.70;1.42;;;22.50;74.40;;;;;;5116183;22;20648;-48
2022/04/30 10:08:57;;;;;;;1.85;1.40;;;22.50;74.40;;;;;;5109570;22;20078;-49
2022/04/30 10:11:33;;;;;;;1.67;1.20;;;22.50;74.40;;;;;;5113590;22;20032;-55
2022/04/30 10:13:59;;;;;;;2.00;1.38;;;22.50;74.30;;;;;;5113288;23;20035;-51
2022/04/30 10:16:05;;;;;;;1.92;1.45;;;22.50;74.30;;;;;;5113300;22;20521;-52
2022/04/30 10:18:09;;;;;;;1.75;1.27;;;22.40;74.20;;;;;;5116216;22;20032;-53
2022/04/30 10:20:21;;;;;;;2.20;1.60;;;22.40;74.20;;;;;;5118110;22;20028;-55
2022/04/30 10:22:23;;;;;;;2.28;1.65;;;22.40;74.10;;;;;;5118101;22;20072;-55
2022/04/30 10:24:33;;;;;;;1.23;1.05;;;22.40;74.10;;;;;;5111562;22;20028;-48
2022/04/30 10:26:36;;;;;;;1.83;1.30;;;22.40;74.10;;;;;;5114237;22;20020;-51
2022/04/30 10:28:39;;;;;;;3.67;1.60;;;22.40;74.00;;;;;;5113357;22;20036;-52
2022/04/30 10:30:41;;;;;;;1.52;1.10;;;22.30;73.90;;;;;;5120028;22;20480;-54
2022/04/30 10:32:43;;;;;;;1.73;1.08;;;22.30;73.90;;;;;;5115497;22;21064;-50
2022/04/30 10:34:54;;;;;;;1.92;1.30;;;22.30;73.90;;;;;;5115204;22;20679;-52
2022/04/30 10:37:00;;;;;;;1.27;1.05;;;22.30;73.80;;;;;;5112045;22;20468;-48
2022/04/30 10:39:04;;;;;;;1.98;1.25;;;22.30;73.80;;;;;;5113043;22;20032;-52
2022/04/30 10:41:10;;;;;;;1.15;0.80;;;22.30;73.80;;;;;;5118792;23;20028;-53
2022/04/30 10:43:19;;;;;;;1.42;1.10;;;22.20;73.70;;;;;;5114917;22;21026;-49
2022/04/30 10:45:29;;;;;;;1.30;0.90;;;22.20;73.60;;;;;;5113700;22;20032;-51
2022/04/30 10:47:31;;;;;;;1.20;0.90;;;22.30;73.60;;;;;;5116832;22;20580;-49
2022/04/30 10:49:33;;;;;;;0.70;0.70;;;22.20;73.50;;;;;;5112569;22;20111;-48
2022/04/30 10:51:43;;;;;;;1.27;1.00;;;22.20;73.50;;;;;;5120331;22;20129;-52
2022/04/30 10:53:47;;;;;;;1.77;1.10;;;22.20;73.40;;;;;;5120229;22;20501;-50
2022/04/30 10:55:50;;;;;;;1.73;1.17;;;22.10;73.30;;;;;;5114410;22;20031;-51
2022/04/30 10:57:52;;;;;;;;;;;22.10;73.30;;;;;;5111930;22;20559;-49
2022/04/30 11:00:02;;;;;;;1.65;0.90;;;22.10;73.30;;;;;;5115929;23;19920;-55
2022/04/30 11:02:04;;;;;;;1.13;0.88;;;22.10;72.80;;;;;;5118244;22;20540;-51
2022/04/30 11:04:06;;;;;;;1.35;0.90;;;22.10;73.20;;;;;;5109824;23;20028;-50
2022/04/30 11:06:11;;;;;;;1.67;1.10;;;22.10;72.80;;;;;;5113527;23;20028;-55
2022/04/30 11:08:13;;;;;;;2.08;1.10;;;22.00;71.60;;;;;;5114857;22;20059;-53
2022/04/30 11:10:15;;;;;;;0.73;0.70;;;22.00;70.70;;;;;;5119587;22;20825;-50
2022/04/30 11:12:18;;;;;;;3.37;1.33;;;22.00;69.80;;;;;;5112825;22;20032;-50
2022/04/30 11:14:20;;;;;;;2.58;0.75;;;22.00;70.80;;;;;;5109879;22;20032;-55
2022/04/30 11:16:28;;;;;;;2.33;1.02;;;22.00;71.20;;;;;;5117976;23;20107;-53
2022/04/30 11:18:30;;;;;;;4.00;1.10;;;21.90;71.50;;;;;;5116472;22;20647;-50